createdAt,value
2019-04-07T00:02:01.016Z,98000.34
2019-04-07T00:04:28.055Z,97995.94
2019-04-07T00:06:54.532Z,98003.23
2019-04-07T00:09:22.229Z,98001.07
2019-04-07T00:11:48.579Z,98002.34
2019-04-07T00:14:14.676Z,98000.92
2019-04-07T00:16:40.833Z,98011.13
2019-04-07T00:19:07.108Z,98013.09
2019-04-07T00:21:33.229Z,98007.38
2019-04-07T00:24:01.819Z,98005.83
2019-04-07T00:26:28.025Z,98013.48
2019-04-07T00:28:54.250Z,98013.44
2019-04-07T00:31:20.551Z,98009.53
2019-04-07T00:33:47.285Z,98004.20
2019-04-07T00:36:13.410Z,98003.78
2019-04-07T00:38:40.616Z,98004.66
2019-04-07T00:41:06.900Z,98005.50
2019-04-07T00:43:32.960Z,98004.34
2019-04-07T00:45:59.465Z,98003.05
2019-04-07T00:48:26.007Z,98015.36
2019-04-07T00:50:52.280Z,98012.41
2019-04-07T00:53:18.901Z,98017.28
2019-04-07T00:55:45.218Z,98013.55
2019-04-07T00:58:11.612Z,98010.11
2019-04-07T01:00:39.986Z,98012.70
2019-04-07T01:03:06.364Z,98015.41
2019-04-07T01:05:36.678Z,98004.78
2019-04-07T01:08:01.710Z,98013.16
2019-04-07T01:10:28.131Z,98016.30
2019-04-07T01:12:54.338Z,98014.91
2019-04-07T01:15:21.004Z,98021.06
2019-04-07T01:17:47.299Z,98020.58
2019-04-07T01:20:14.050Z,98017.68
2019-04-07T01:22:40.805Z,98020.05
2019-04-07T01:25:07.149Z,98019.06
2019-04-07T01:27:33.671Z,98026.56
2019-04-07T01:30:00.815Z,98016.52
2019-04-07T01:32:27.066Z,98033.22
2019-04-07T01:34:54.878Z,97995.04
2019-04-07T01:37:21.261Z,98032.55
2019-04-07T01:39:47.738Z,98032.95
2019-04-07T01:42:28.338Z,98042.84
2019-04-07T01:45:15.527Z,98031.56
2019-04-07T01:48:00.739Z,98032.13
2019-04-07T01:50:31.680Z,98027.13
2019-04-07T01:53:14.829Z,98023.66
2019-04-07T01:55:43.963Z,98030.05
2019-04-07T01:58:20.724Z,98019.50
2019-04-07T02:00:52.163Z,98014.66
2019-04-07T02:03:26.546Z,98014.11
2019-04-07T02:05:59.320Z,98010.36
2019-04-07T02:08:34.048Z,98017.19
2019-04-07T02:11:20.074Z,98012.02
2019-04-07T02:13:51.614Z,98018.07
2019-04-07T02:16:28.886Z,98017.23
2019-04-07T02:19:12.376Z,98018.08
2019-04-07T02:21:57.151Z,98014.86
2019-04-07T02:24:25.576Z,98013.67
2019-04-07T02:26:59.781Z,98012.52
2019-04-07T02:29:43.449Z,98018.98
2019-04-07T02:32:11.567Z,98024.58
2019-04-07T02:34:40.132Z,98030.45
2019-04-07T02:37:24.392Z,98037.37
2019-04-07T02:39:55.130Z,98028.63
2019-04-07T02:42:26.675Z,98026.21
2019-04-07T02:45:01.903Z,98024.73
2019-04-07T02:47:42.061Z,98022.51
2019-04-07T02:50:10.568Z,98029.92
2019-04-07T02:52:54.825Z,98034.13
2019-04-07T02:55:26.925Z,98056.42
2019-04-07T02:57:59.245Z,98039.12
2019-04-07T03:00:39.980Z,98042.84
2019-04-07T03:03:11.156Z,98036.77
2019-04-07T03:05:42.321Z,98034.19
2019-04-07T03:08:13.441Z,98044.17
2019-04-07T03:10:41.644Z,98043.16
2019-04-07T03:13:09.899Z,98047.96
2019-04-07T03:15:44.965Z,98049.81
2019-04-07T03:18:24.284Z,97875.58
2019-04-07T03:21:04.217Z,98048.73
2019-04-07T03:23:51.393Z,98053.94
2019-04-07T03:26:38.647Z,97814.05
2019-04-07T03:29:09.794Z,98045.36
2019-04-07T03:31:49.160Z,98046.62
2019-04-07T03:34:23.341Z,98046.67
2019-04-07T03:37:27.015Z,98047.77
2019-04-07T03:39:34.325Z,98052.52
2019-04-07T03:42:03.019Z,98053.72
2019-04-07T03:44:31.168Z,98055.52
2019-04-07T03:47:08.840Z,98052.45
2019-04-07T03:49:46.035Z,98066.55
2019-04-07T03:52:32.030Z,98054.86
2019-04-07T03:55:03.144Z,98054.86
2019-04-07T03:57:40.894Z,98052.31
2019-04-07T04:00:16.833Z,98054.14
2019-04-07T04:02:50.766Z,98052.33
2019-04-07T04:05:31.130Z,98054.35
2019-04-07T04:08:08.188Z,98049.57
2019-04-07T04:10:36.964Z,98056.30
2019-04-07T04:13:11.112Z,98053.35
2019-04-07T04:15:39.528Z,98049.08
2019-04-07T04:18:06.629Z,98044.48
2019-04-07T04:20:32.817Z,98048.19
2019-04-07T04:22:59.743Z,98049.33
2019-04-07T04:25:27.432Z,98049.20
2019-04-07T04:27:53.554Z,98053.98
2019-04-07T04:30:19.732Z,98058.88
2019-04-07T04:32:46.422Z,98061.63
2019-04-07T04:35:12.972Z,98058.73
2019-04-07T04:37:44.253Z,98058.61
2019-04-07T04:40:07.556Z,98059.98
2019-04-07T04:42:34.138Z,98058.61
2019-04-07T04:45:00.650Z,98070.87
2019-04-07T04:47:27.532Z,98056.93
2019-04-07T04:49:54.232Z,98067.38
2019-04-07T04:52:20.777Z,98064.34
2019-04-07T04:54:47.487Z,98072.03
2019-04-07T04:57:14.598Z,98082.78
2019-04-07T04:59:40.870Z,98076.04
2019-04-07T05:02:07.805Z,98084.33
2019-04-07T05:04:34.123Z,98085.84
2019-04-07T05:07:01.437Z,98084.33
2019-04-07T05:09:41.840Z,98085.54
2019-04-07T05:11:58.869Z,98093.69
2019-04-07T05:14:31.311Z,98083.25
2019-04-07T05:16:57.472Z,98092.61
2019-04-07T05:19:23.767Z,98091.40
2019-04-07T05:21:50.493Z,98098.73
2019-04-07T05:24:18.229Z,98096.75
2019-04-07T05:26:44.531Z,98099.64
2019-04-07T05:29:10.987Z,98102.41
2019-04-07T05:31:38.518Z,98098.26
2019-04-07T05:34:05.524Z,97887.23
2019-04-07T05:36:32.530Z,98096.54
2019-04-07T05:38:58.770Z,97892.22
2019-04-07T05:41:25.026Z,97919.81
2019-04-07T05:43:51.526Z,98139.02
2019-04-07T05:46:17.790Z,98117.23
2019-04-07T05:48:44.610Z,98122.89
2019-04-07T05:51:10.709Z,98077.19
2019-04-07T05:53:36.882Z,98120.98
2019-04-07T05:56:03.507Z,98127.54
2019-04-07T05:58:29.890Z,98127.63
2019-04-07T06:00:56.945Z,98121.45
2019-04-07T06:03:23.556Z,98130.64
2019-04-07T06:05:51.235Z,98130.77
2019-04-07T06:08:27.919Z,98130.72
2019-04-07T06:10:46.324Z,98132.08
2019-04-07T06:13:14.606Z,98130.97
2019-04-07T06:15:40.938Z,98137.86
2019-04-07T06:18:07.375Z,98155.77
2019-04-07T06:20:33.555Z,98133.91
2019-04-07T06:23:00.664Z,98143.70
2019-04-07T06:25:27.425Z,98133.79
2019-04-07T06:27:54.289Z,98141.55
2019-04-07T06:30:22.067Z,98142.43
2019-04-07T06:32:48.584Z,98138.17
2019-04-07T06:35:15.912Z,98134.23
2019-04-07T06:37:42.866Z,98135.98
2019-04-07T06:40:09.992Z,98137.17
2019-04-07T06:42:36.687Z,98137.73
2019-04-07T06:47:49.785Z,98135.70
2019-04-07T06:50:20.748Z,98147.23
2019-04-07T06:53:10.573Z,98139.56
2019-04-07T06:55:52.276Z,98136.83
2019-04-07T06:58:21.705Z,98150.63
2019-04-07T07:01:02.028Z,98151.27
2019-04-07T07:03:29.151Z,98147.63
2019-04-07T07:06:10.114Z,98147.94
2019-04-07T07:08:55.670Z,98152.36
2019-04-07T07:11:43.059Z,98154.42
2019-04-07T07:14:31.429Z,98151.73
2019-04-07T07:16:52.376Z,98151.98
2019-04-07T07:19:32.806Z,98148.85
2019-04-07T07:22:14.807Z,98148.50
2019-04-07T07:24:38.313Z,98148.63
2019-04-07T07:27:07.101Z,98150.78
2019-04-07T07:29:33.812Z,98150.94
2019-04-07T07:32:03.762Z,98147.19
2019-04-07T07:34:29.534Z,98138.19
2019-04-07T07:36:57.785Z,98137.83
2019-04-07T07:39:25.048Z,98138.98
2019-04-07T07:41:52.181Z,98142.89
2019-04-07T07:44:20.067Z,98139.19
2019-04-07T07:46:49.130Z,98134.86
2019-04-07T07:49:14.857Z,98134.91
2019-04-07T07:51:45.066Z,98143.06
2019-04-07T07:54:09.939Z,98135.91
2019-04-07T07:56:36.747Z,97857.12
2019-04-07T07:59:03.660Z,98141.33
2019-04-07T08:01:31.019Z,98140.10
2019-04-07T08:03:57.665Z,98146.97
2019-04-07T08:06:24.041Z,98143.52
2019-04-07T08:08:50.306Z,98148.02
2019-04-07T08:11:17.743Z,98150.86
2019-04-07T08:13:45.946Z,98143.92
2019-04-07T08:16:14.110Z,98137.49
2019-04-07T08:18:44.636Z,98169.48
2019-04-07T08:21:12.235Z,98135.26
2019-04-07T08:23:39.024Z,98133.13
2019-04-07T08:26:08.452Z,98133.98
2019-04-07T08:28:35.886Z,98142.91
2019-04-07T08:31:04.389Z,98140.26
2019-04-07T08:33:30.916Z,98144.01
2019-04-07T08:35:57.963Z,98137.00
2019-04-07T08:38:26.731Z,98134.91
2019-04-07T08:40:54.288Z,98135.95
2019-04-07T08:43:23.396Z,98137.53
2019-04-07T08:45:51.487Z,98134.25
2019-04-07T08:48:19.326Z,98136.16
2019-04-07T08:50:50.332Z,98156.28
2019-04-07T08:53:17.009Z,98138.91
2019-04-07T08:55:44.759Z,98138.05
2019-04-07T08:58:24.443Z,98140.27
2019-04-07T09:00:42.689Z,98147.44
2019-04-07T09:03:14.721Z,98151.39
2019-04-07T09:05:39.919Z,98147.55
2019-04-07T09:08:07.401Z,98146.15
2019-04-07T09:10:39.555Z,98142.17
2019-04-07T09:13:09.080Z,98139.31
2019-04-07T09:15:54.472Z,98142.69
2019-04-07T09:18:51.641Z,98140.80
2019-04-07T09:21:19.923Z,98017.36
2019-04-07T09:24:13.972Z,98137.34
2019-04-07T09:26:49.934Z,97923.28
2019-04-07T09:29:18.445Z,98127.95
2019-04-07T09:31:57.603Z,98138.55
2019-04-07T09:34:43.494Z,98141.06
2019-04-07T09:37:13.397Z,98136.78
2019-04-07T09:39:56.258Z,98142.97
2019-04-07T09:42:20.184Z,98131.91
2019-04-07T09:44:49.515Z,98128.05
2019-04-07T09:47:20.526Z,98140.31
2019-04-07T09:49:50.171Z,98122.14
2019-04-07T09:52:18.947Z,98125.80
2019-04-07T09:54:53.794Z,98121.21
2019-04-07T09:57:20.160Z,98122.33
2019-04-07T10:00:07.281Z,98128.75
2019-04-07T10:02:35.761Z,98132.42
2019-04-07T10:05:11.376Z,98122.52
2019-04-07T10:07:58.008Z,98125.27
2019-04-07T10:10:32.327Z,98119.52
2019-04-07T10:13:06.674Z,98120.27
2019-04-07T10:15:45.781Z,98109.63
2019-04-07T10:18:22.932Z,98117.45
2019-04-07T10:20:59.912Z,98123.05
2019-04-07T10:23:48.704Z,97957.94
2019-04-07T10:26:16.753Z,98121.52
2019-04-07T10:28:54.416Z,97955.86
2019-04-07T10:31:28.540Z,98111.72
2019-04-07T10:34:03.402Z,98114.53
2019-04-07T10:36:31.895Z,98123.75
2019-04-07T10:39:08.967Z,98111.66
2019-04-07T10:41:38.335Z,98117.01
2019-04-07T10:44:09.640Z,97954.11
2019-04-07T10:46:41.644Z,98115.85
2019-04-07T10:49:25.185Z,98108.48
2019-04-07T10:51:57.014Z,98110.56
2019-04-07T10:54:38.110Z,98017.46
2019-04-07T10:57:16.825Z,98102.15
2019-04-07T11:00:01.422Z,98106.11
2019-04-07T11:02:29.887Z,98101.19
2019-04-07T11:05:07.083Z,98100.95
2019-04-07T11:07:55.871Z,98099.06
2019-04-07T11:10:36.123Z,98102.92
2019-04-07T11:13:17.045Z,98098.75
2019-04-07T11:15:55.195Z,98093.66
2019-04-07T11:18:29.234Z,98100.16
2019-04-07T11:21:00.984Z,98104.66
2019-04-07T11:23:41.480Z,98099.73
2019-04-07T11:26:18.946Z,98097.83
2019-04-07T11:28:47.036Z,98100.23
2019-04-07T11:31:15.729Z,98099.83
2019-04-07T11:33:47.325Z,98096.72
2019-04-07T11:36:25.456Z,97950.27
2019-04-07T11:39:03.121Z,98123.72
2019-04-07T11:41:48.297Z,98112.47
2019-04-07T11:44:29.236Z,98091.48
2019-04-07T11:47:02.114Z,98102.42
2019-04-07T11:49:33.140Z,98091.03
2019-04-07T11:52:18.030Z,98092.13
2019-04-07T11:55:02.605Z,98093.22
2019-04-07T11:57:35.382Z,98092.38
2019-04-07T12:00:25.080Z,98087.37
2019-04-07T12:02:56.184Z,98089.09
2019-04-07T12:05:36.653Z,98091.44
2019-04-07T12:08:21.655Z,98081.81
2019-04-07T12:10:58.675Z,98101.43
2019-04-07T12:13:25.475Z,98092.93
2019-04-07T12:16:03.628Z,98092.44
2019-04-07T12:18:35.273Z,98095.37
2019-04-07T12:21:19.423Z,98087.63
2019-04-07T12:24:11.350Z,98093.84
2019-04-07T12:26:43.715Z,98087.41
2019-04-07T12:29:28.767Z,98090.83
2019-04-07T12:32:13.865Z,98101.42
2019-04-07T12:34:47.741Z,98090.00
2019-04-07T12:37:15.642Z,98087.83
2019-04-07T12:39:47.292Z,98079.87
2019-04-07T12:42:24.514Z,98083.54
2019-04-07T12:45:07.934Z,98089.13
2019-04-07T12:47:39.781Z,98084.23
2019-04-07T12:50:21.615Z,98071.88
2019-04-07T12:53:02.377Z,98083.12
2019-04-07T12:55:32.912Z,98080.84
2019-04-07T12:58:09.622Z,98072.00
2019-04-07T13:01:00.018Z,98074.97
2019-04-07T13:03:37.457Z,98081.36
2019-04-07T13:06:22.289Z,98068.33
2019-04-07T13:08:53.663Z,98075.81
2019-04-07T13:11:33.980Z,98070.36
2019-04-07T13:14:10.015Z,98066.87
2019-04-07T13:16:50.360Z,97923.41
2019-04-07T13:19:18.806Z,98070.09
2019-04-07T13:21:48.049Z,98063.86
2019-04-07T13:24:35.601Z,98058.20
2019-04-07T13:27:06.343Z,98055.78
2019-04-07T13:29:34.843Z,98052.14
2019-04-07T13:32:15.238Z,98058.30
2019-04-07T13:34:58.250Z,98062.63
2019-04-07T13:37:26.767Z,98055.19
2019-04-07T13:39:57.807Z,98051.44
2019-04-07T13:42:37.954Z,98052.55
2019-04-07T13:45:12.035Z,98052.70
2019-04-07T13:47:49.016Z,98047.51
2019-04-07T13:50:23.545Z,97898.00
2019-04-07T13:52:55.013Z,98037.93
2019-04-07T13:55:41.745Z,98036.95
2019-04-07T13:58:17.256Z,98042.31
2019-04-07T14:01:02.105Z,98043.09
2019-04-07T14:03:47.005Z,98043.31
2019-04-07T14:06:22.135Z,98041.27
2019-04-07T14:09:02.540Z,98045.42
2019-04-07T14:12:01.528Z,98042.75
2019-04-07T14:14:21.001Z,98048.34
2019-04-07T14:17:07.324Z,98045.86
2019-04-07T14:19:42.242Z,98050.22
2019-04-07T14:22:14.434Z,97971.97
2019-04-07T14:24:42.611Z,98048.93
2019-04-07T14:27:10.664Z,98040.11
2019-04-07T14:29:41.734Z,98043.66
2019-04-07T14:32:10.236Z,98044.23
2019-04-07T14:34:39.142Z,98044.94
2019-04-07T14:37:23.909Z,98041.22
2019-04-07T14:39:52.374Z,98052.63
2019-04-07T14:42:20.559Z,98044.66
2019-04-07T14:44:55.562Z,98057.27
2019-04-07T14:47:36.013Z,98050.23
2019-04-07T14:50:23.204Z,98050.64
2019-04-07T14:52:54.768Z,98054.98
2019-04-07T14:55:23.747Z,98050.44
2019-04-07T14:57:54.629Z,98055.05
2019-04-07T15:00:38.639Z,98056.47
2019-04-07T15:03:05.182Z,98048.02
2019-04-07T15:05:34.141Z,98055.08
2019-04-07T15:08:11.783Z,98049.16
2019-04-07T15:10:46.284Z,98054.60
2019-04-07T15:13:14.845Z,98047.74
2019-04-07T15:15:41.819Z,98054.22
2019-04-07T15:18:08.179Z,98056.41
2019-04-07T15:20:34.992Z,98052.53
2019-04-07T15:23:01.892Z,98058.17
2019-04-07T15:25:29.701Z,98058.23
2019-04-07T15:27:58.887Z,98057.84
2019-04-07T15:30:25.331Z,98058.97
2019-04-07T15:32:51.697Z,98065.55
2019-04-07T15:35:18.228Z,98061.59
2019-04-07T15:37:44.627Z,98058.41
2019-04-07T15:40:12.017Z,98059.98
2019-04-07T15:42:43.428Z,98066.78
2019-04-07T15:45:10.591Z,98060.66
2019-04-07T15:47:36.012Z,98065.06
2019-04-07T15:50:05.109Z,98059.14
2019-04-07T15:52:32.036Z,98061.40
2019-04-07T15:54:58.483Z,98068.73
2019-04-07T15:57:25.821Z,98073.41
2019-04-07T15:59:52.389Z,98068.61
2019-04-07T16:02:19.294Z,98073.65
2019-04-07T16:04:45.591Z,98076.47
2019-04-07T16:07:12.308Z,98073.55
2019-04-07T16:09:49.262Z,98083.86
2019-04-07T16:12:06.646Z,98084.42
2019-04-07T16:14:32.841Z,98099.16
2019-04-07T16:17:02.803Z,98081.52
2019-04-07T16:19:37.685Z,98088.57
2019-04-07T16:21:55.833Z,98087.61
2019-04-07T16:24:22.989Z,98089.02
2019-04-07T16:26:50.107Z,98089.09
2019-04-07T16:29:18.035Z,98086.47
2019-04-07T16:31:44.920Z,98097.31
2019-04-07T16:34:11.434Z,98100.91
2019-04-07T16:36:38.182Z,98099.77
2019-04-07T16:39:09.325Z,98102.41
2019-04-07T16:41:35.774Z,98103.49
2019-04-07T16:44:05.469Z,98099.94
2019-04-07T16:46:30.497Z,98100.09
2019-04-07T16:48:57.758Z,98103.93
2019-04-07T16:51:28.424Z,98105.78
2019-04-07T16:53:53.292Z,98105.57
2019-04-07T16:56:21.967Z,98116.88
2019-04-07T16:58:49.000Z,98111.60
2019-04-07T17:01:16.121Z,98116.84
2019-04-07T17:03:43.107Z,98110.24
2019-04-07T17:06:11.979Z,98108.45
2019-04-07T17:08:38.008Z,98108.67
2019-04-07T17:11:07.382Z,98110.98
2019-04-07T17:13:38.616Z,98105.81
2019-04-07T17:16:00.983Z,98114.70
2019-04-07T17:18:41.107Z,98112.89
2019-04-07T17:21:12.793Z,98106.55
2019-04-07T17:23:39.706Z,98111.11
2019-04-07T17:26:06.902Z,98105.83
2019-04-07T17:28:35.836Z,98116.69
2019-04-07T17:31:02.743Z,98113.66
2019-04-07T17:33:29.575Z,97938.08
2019-04-07T17:35:55.888Z,98118.47
2019-04-07T17:38:23.959Z,98122.69
2019-04-07T17:40:51.829Z,98121.62
2019-04-07T17:43:31.543Z,98127.46
2019-04-07T17:45:55.972Z,98124.25
2019-04-07T17:48:24.434Z,98124.28
2019-04-07T17:51:07.312Z,98123.84
2019-04-07T17:53:38.235Z,98130.48
2019-04-07T17:56:16.299Z,98129.19
2019-04-07T17:58:54.003Z,98126.50
2019-04-07T18:01:24.560Z,98125.97
2019-04-07T18:03:55.218Z,98128.16
2019-04-07T18:06:32.313Z,98139.41
2019-04-07T18:09:20.261Z,98141.05
2019-04-07T18:11:47.680Z,98143.34
2019-04-07T18:14:15.863Z,98143.22
2019-04-07T18:17:02.458Z,97956.98
2019-04-07T18:19:34.761Z,98152.97
2019-04-07T18:22:06.256Z,98158.05
2019-04-07T18:24:37.777Z,98160.42
2019-04-07T18:27:12.564Z,98160.64
2019-04-07T18:29:41.737Z,98160.08
2019-04-07T18:32:11.016Z,98164.70
2019-04-07T18:34:51.738Z,98161.58
2019-04-07T18:37:40.055Z,98172.48
2019-04-07T18:40:10.999Z,98176.57
2019-04-07T18:42:55.693Z,98177.66
2019-04-07T18:45:33.343Z,98182.73
2019-04-07T18:48:08.027Z,98187.92
2019-04-07T18:50:40.021Z,98195.89
2019-04-07T18:53:11.237Z,98195.56
2019-04-07T18:55:48.491Z,98200.19
2019-04-07T18:58:22.694Z,98201.94
2019-04-07T19:01:09.383Z,98201.58
2019-04-07T19:03:51.952Z,98202.44
2019-04-07T19:06:23.734Z,98202.87
2019-04-07T19:09:08.155Z,98203.29
2019-04-07T19:12:02.824Z,98204.49
2019-04-07T19:14:41.216Z,98210.42
2019-04-07T19:17:05.044Z,98205.11
2019-04-07T19:19:50.619Z,98213.84
2019-04-07T19:22:21.151Z,98215.45
2019-04-07T19:25:05.121Z,98210.56
2019-04-07T19:27:48.257Z,98210.23
2019-04-07T19:30:16.503Z,98215.61
2019-04-07T19:32:57.834Z,98211.08
2019-04-07T19:35:39.851Z,98217.75
2019-04-07T19:38:12.224Z,98218.92
2019-04-07T19:40:53.131Z,98218.70
2019-04-07T19:43:31.937Z,98214.29
2019-04-07T19:46:15.836Z,98219.54
2019-04-07T19:49:02.919Z,98214.23
2019-04-07T19:51:49.446Z,98213.80
2019-04-07T19:54:18.848Z,98214.88
2019-04-07T19:56:47.915Z,98212.34
2019-04-07T19:59:16.122Z,98206.61
2019-04-07T20:02:03.581Z,98212.75
2019-04-07T20:04:50.161Z,98017.59
2019-04-07T20:07:20.241Z,98177.66
2019-04-07T20:09:48.893Z,98212.38
2019-04-07T20:12:38.230Z,98218.59
2019-04-07T20:15:24.161Z,98215.02
2019-04-07T20:17:54.968Z,98212.81
2019-04-07T20:20:28.226Z,98203.22
2019-04-07T20:23:02.637Z,98213.86
2019-04-07T20:25:47.899Z,98219.70
2019-04-07T20:28:25.231Z,98223.38
2019-04-07T20:31:03.956Z,98220.58
2019-04-07T20:33:49.284Z,98223.41
2019-04-07T20:36:23.837Z,98219.30
2019-04-07T20:38:58.526Z,98213.66
2019-04-07T20:41:38.759Z,98222.41
2019-04-07T20:44:14.845Z,98213.61
2019-04-07T20:47:00.743Z,98217.60
2019-04-07T20:49:34.270Z,98212.57
2019-04-07T20:52:03.282Z,98207.67
2019-04-07T20:54:34.503Z,98009.84
2019-04-07T20:57:05.019Z,98220.56
2019-04-07T20:59:34.530Z,98217.31
2019-04-07T21:02:11.479Z,98211.13
2019-04-07T21:04:49.919Z,98218.74
2019-04-07T21:07:29.855Z,98222.06
2019-04-07T21:10:16.714Z,98221.19
2019-04-07T21:12:56.962Z,98224.75
2019-04-07T21:15:30.395Z,98220.66
2019-04-07T21:18:01.994Z,98219.52
2019-04-07T21:20:37.235Z,98223.08
2019-04-07T21:23:09.281Z,98220.39
2019-04-07T21:25:55.844Z,98219.97
2019-04-07T21:28:30.949Z,98220.22
2019-04-07T21:31:17.859Z,98223.78
2019-04-07T21:33:47.709Z,98226.82
2019-04-07T21:36:32.872Z,98028.73
2019-04-07T21:39:01.775Z,98226.55
2019-04-07T21:41:45.169Z,98225.36
2019-04-07T21:44:15.975Z,98220.53
2019-04-07T21:46:46.357Z,98229.34
2019-04-07T21:49:17.557Z,98212.19
2019-04-07T21:51:51.453Z,98214.88
2019-04-07T21:54:19.717Z,98221.75
2019-04-07T21:57:04.463Z,98225.17
2019-04-07T21:59:35.701Z,98224.55
2019-04-07T22:02:19.517Z,98225.07
2019-04-07T22:04:54.548Z,97944.17
2019-04-07T22:07:37.983Z,98218.81
2019-04-07T22:10:07.938Z,98227.20
2019-04-07T22:12:34.293Z,98227.20
2019-04-07T22:15:00.669Z,98221.62
2019-04-07T22:17:27.527Z,98231.29
2019-04-07T22:19:54.368Z,98224.05
2019-04-07T22:22:24.099Z,98218.22
2019-04-07T22:24:50.677Z,98228.00
2019-04-07T22:27:21.268Z,98215.32
2019-04-07T22:29:45.729Z,98210.87
2019-04-07T22:32:14.842Z,98219.16
2019-04-07T22:34:40.428Z,98211.78
2019-04-07T22:37:06.802Z,98222.09
2019-04-07T22:39:33.361Z,98219.19
2019-04-07T22:42:00.161Z,98224.02
2019-04-07T22:44:26.407Z,98226.06
2019-04-07T22:46:52.964Z,98223.77
2019-04-07T22:49:19.825Z,98214.64
2019-04-07T22:51:47.559Z,98226.09
2019-04-07T22:54:14.656Z,98227.77
2019-04-07T22:56:40.938Z,98223.22
2019-04-07T22:59:09.828Z,98223.38
2019-04-07T23:01:35.488Z,98227.33
2019-04-07T23:04:02.086Z,98225.95
2019-04-07T23:06:28.736Z,98226.36
2019-04-07T23:08:55.409Z,98232.33
2019-04-07T23:11:22.512Z,98229.70
2019-04-07T23:13:49.587Z,98220.82
2019-04-07T23:16:17.476Z,98226.20
2019-04-07T23:18:44.482Z,98222.63
2019-04-07T23:21:11.673Z,98225.99
2019-04-07T23:23:38.219Z,98221.56
2019-04-07T23:26:05.473Z,98227.05
2019-04-07T23:28:32.685Z,98228.71
2019-04-07T23:30:59.194Z,98030.48
2019-04-07T23:33:25.615Z,98233.93
2019-04-07T23:35:53.300Z,98224.53
2019-04-07T23:38:19.832Z,98231.92
2019-04-07T23:40:46.185Z,98013.55
2019-04-07T23:43:13.193Z,98229.50
2019-04-07T23:49:11.969Z,98229.75
2019-04-07T23:51:38.174Z,98020.88
2019-04-07T23:54:11.341Z,98227.63
2019-04-07T23:56:39.992Z,98227.88
2019-04-07T23:59:06.338Z,98221.64
